sensor_id;sensor_type;location;lat;lon;timestamp;pressure;altitude;pressure_sealevel;temperature;humidity
62510;BME280;48558;48.242;11.654;2023-03-02T00:04:14;96210.41;;;-0.22;100.00
62510;BME280;48558;48.242;11.654;2023-03-02T00:08:35;96209.28;;;-0.28;100.00
62510;BME280;48558;48.242;11.654;2023-03-02T00:12:48;96194.94;;;-0.32;100.00
62510;BME280;48558;48.242;11.654;2023-03-02T00:17:01;96199.78;;;0.08;100.00
62510;BME280;48558;48.242;11.654;2023-03-02T00:21:14;96197.72;;;0.26;100.00
62510;BME280;48558;48.242;11.654;2023-03-02T00:25:26;96199.31;;;0.20;100.00
62510;BME280;48558;48.242;11.654;2023-03-02T00:29:41;96197.78;;;0.19;100.00
62510;BME280;48558;48.242;11.654;2023-03-02T00:33:53;96182.25;;;0.16;100.00
62510;BME280;48558;48.242;11.654;2023-03-02T00:38:06;96207.41;;;0.27;100.00
62510;BME280;48558;48.242;11.654;2023-03-02T00:42:24;96177.31;;;0.04;100.00
62510;BME280;48558;48.242;11.654;2023-03-02T00:46:37;96200.41;;;0.30;100.00
62510;BME280;48558;48.242;11.654;2023-03-02T00:50:49;96201.28;;;0.16;100.00
62510;BME280;48558;48.242;11.654;2023-03-02T00:55:02;96207.91;;;0.12;100.00
62510;BME280;48558;48.242;11.654;2023-03-02T00:59:15;96191.63;;;0.05;100.00
62510;BME280;48558;48.242;11.654;2023-03-02T01:03:39;96189.00;;;-0.06;100.00
62510;BME280;48558;48.242;11.654;2023-03-02T01:08:02;96190.25;;;-0.21;100.00
62510;BME280;48558;48.242;11.654;2023-03-02T01:12:15;96186.75;;;-0.22;100.00
62510;BME280;48558;48.242;11.654;2023-03-02T01:16:27;96176.69;;;-0.28;100.00
62510;BME280;48558;48.242;11.654;2023-03-02T01:20:41;96167.00;;;-0.26;100.00
62510;BME280;48558;48.242;11.654;2023-03-02T01:24:54;96169.72;;;-0.33;100.00
62510;BME280;48558;48.242;11.654;2023-03-02T01:29:06;96167.44;;;-0.45;100.00
62510;BME280;48558;48.242;11.654;2023-03-02T01:33:19;96154.69;;;-0.48;100.00
62510;BME280;48558;48.242;11.654;2023-03-02T01:37:32;96148.09;;;-0.50;100.00
62510;BME280;48558;48.242;11.654;2023-03-02T01:47:34;96153.91;;;-0.48;100.00
62510;BME280;48558;48.242;11.654;2023-03-02T01:51:47;96141.56;;;-0.67;100.00
62510;BME280;48558;48.242;11.654;2023-03-02T01:56:01;96147.00;;;-0.67;100.00
62510;BME280;48558;48.242;11.654;2023-03-02T02:00:28;96126.13;;;-0.77;100.00
62510;BME280;48558;48.242;11.654;2023-03-02T02:04:44;96136.94;;;-0.74;100.00
62510;BME280;48558;48.242;11.654;2023-03-02T02:09:00;96143.13;;;-0.69;100.00
62510;BME280;48558;48.242;11.654;2023-03-02T02:13:12;96132.25;;;-0.62;100.00
62510;BME280;48558;48.242;11.654;2023-03-02T02:17:27;96135.72;;;-0.55;100.00
62510;BME280;48558;48.242;11.654;2023-03-02T02:21:41;96121.84;;;-0.75;100.00
62510;BME280;48558;48.242;11.654;2023-03-02T02:31:05;96108.72;;;-0.90;100.00
62510;BME280;48558;48.242;11.654;2023-03-02T02:35:23;96128.09;;;-0.85;100.00
62510;BME280;48558;48.242;11.654;2023-03-02T02:39:42;96118.81;;;-0.94;100.00
62510;BME280;48558;48.242;11.654;2023-03-02T02:43:57;96121.53;;;-0.98;100.00
62510;BME280;48558;48.242;11.654;2023-03-02T02:48:15;96117.28;;;-0.95;100.00
62510;BME280;48558;48.242;11.654;2023-03-02T02:52:30;96125.44;;;-1.09;100.00
62510;BME280;48558;48.242;11.654;2023-03-02T02:56:42;96128.94;;;-1.19;100.00
62510;BME280;48558;48.242;11.654;2023-03-02T03:00:56;96114.66;;;-1.30;100.00
62510;BME280;48558;48.242;11.654;2023-03-02T03:05:13;96119.31;;;-1.34;100.00
62510;BME280;48558;48.242;11.654;2023-03-02T03:09:26;96107.72;;;-1.46;100.00
62510;BME280;48558;48.242;11.654;2023-03-02T03:13:40;96115.44;;;-1.44;100.00
62510;BME280;48558;48.242;11.654;2023-03-02T03:17:55;96117.78;;;-1.42;100.00
62510;BME280;48558;48.242;11.654;2023-03-02T03:22:11;96093.00;;;-1.55;100.00
62510;BME280;48558;48.242;11.654;2023-03-02T03:26:25;96110.03;;;-1.51;100.00
62510;BME280;48558;48.242;11.654;2023-03-02T03:30:47;96106.56;;;-1.62;100.00
62510;BME280;48558;48.242;11.654;2023-03-02T03:35:00;96091.50;;;-1.70;100.00
62510;BME280;48558;48.242;11.654;2023-03-02T03:39:15;96108.88;;;-1.54;100.00
62510;BME280;48558;48.242;11.654;2023-03-02T03:43:28;96094.56;;;-1.72;100.00
62510;BME280;48558;48.242;11.654;2023-03-02T03:47:40;96102.31;;;-1.63;100.00
62510;BME280;48558;48.242;11.654;2023-03-02T03:51:53;96107.72;;;-1.67;100.00
62510;BME280;48558;48.242;11.654;2023-03-02T03:56:06;96094.94;;;-1.63;100.00
62510;BME280;48558;48.242;11.654;2023-03-02T04:00:22;96106.19;;;-1.61;100.00
62510;BME280;48558;48.242;11.654;2023-03-02T04:04:35;96099.97;;;-1.58;100.00
62510;BME280;48558;48.242;11.654;2023-03-02T04:08:48;96102.28;;;-1.53;100.00
62510;BME280;48558;48.242;11.654;2023-03-02T04:13:01;96098.44;;;-1.52;100.00
62510;BME280;48558;48.242;11.654;2023-03-02T04:17:19;96099.94;;;-1.22;100.00
62510;BME280;48558;48.242;11.654;2023-03-02T04:21:46;96099.94;;;-1.22;100.00
62510;BME280;48558;48.242;11.654;2023-03-02T04:26:00;96094.41;;;-0.94;100.00
62510;BME280;48558;48.242;11.654;2023-03-02T04:30:19;96097.50;;;-0.92;100.00
62510;BME280;48558;48.242;11.654;2023-03-02T04:34:34;96086.66;;;-0.96;100.00
62510;BME280;48558;48.242;11.654;2023-03-02T04:38:47;96090.19;;;-1.09;100.00
62510;BME280;48558;48.242;11.654;2023-03-02T04:43:00;96085.94;;;-1.10;100.00
62510;BME280;48558;48.242;11.654;2023-03-02T04:47:12;96102.59;;;-1.05;100.00
62510;BME280;48558;48.242;11.654;2023-03-02T04:51:29;96099.06;;;-1.02;100.00
62510;BME280;48558;48.242;11.654;2023-03-02T04:55:44;96100.22;;;-0.99;100.00
62510;BME280;48558;48.242;11.654;2023-03-02T04:59:56;96087.09;;;-1.08;100.00
62510;BME280;48558;48.242;11.654;2023-03-02T05:04:09;96093.13;;;-0.65;100.00
62510;BME280;48558;48.242;11.654;2023-03-02T05:08:22;96080.41;;;-0.86;100.00
62510;BME280;48558;48.242;11.654;2023-03-02T05:12:35;96086.69;;;-1.03;100.00
62510;BME280;48558;48.242;11.654;2023-03-02T05:17:05;96075.53;;;-1.26;100.00
62510;BME280;48558;48.242;11.654;2023-03-02T05:21:18;96091.81;;;-1.33;100.00
62510;BME280;48558;48.242;11.654;2023-03-02T05:25:33;96084.84;;;-1.45;100.00
62510;BME280;48558;48.242;11.654;2023-03-02T05:29:49;96089.91;;;-1.47;100.00
62510;BME280;48558;48.242;11.654;2023-03-02T05:34:07;96084.88;;;-1.48;100.00
62510;BME280;48558;48.242;11.654;2023-03-02T05:38:21;96096.47;;;-1.58;100.00
62510;BME280;48558;48.242;11.654;2023-03-02T05:42:34;96097.69;;;-1.70;100.00
62510;BME280;48558;48.242;11.654;2023-03-02T05:46:47;96094.97;;;-1.80;100.00
62510;BME280;48558;48.242;11.654;2023-03-02T05:51:00;96101.56;;;-1.81;100.00
62510;BME280;48558;48.242;11.654;2023-03-02T05:55:14;96098.06;;;-1.82;100.00
62510;BME280;48558;48.242;11.654;2023-03-02T05:59:27;96097.31;;;-1.79;100.00
62510;BME280;48558;48.242;11.654;2023-03-02T06:03:39;96095.75;;;-1.90;100.00
62510;BME280;48558;48.242;11.654;2023-03-02T06:07:52;96101.53;;;-1.78;100.00
62510;BME280;48558;48.242;11.654;2023-03-02T06:12:05;96105.41;;;-1.75;100.00
62510;BME280;48558;48.242;11.654;2023-03-02T06:16:18;96110.81;;;-1.75;100.00
62510;BME280;48558;48.242;11.654;2023-03-02T06:20:31;96113.53;;;-1.72;100.00
62510;BME280;48558;48.242;11.654;2023-03-02T06:24:44;96117.78;;;-1.46;100.00
62510;BME280;48558;48.242;11.654;2023-03-02T06:28:56;96114.28;;;-1.39;100.00
62510;BME280;48558;48.242;11.654;2023-03-02T06:33:09;96115.41;;;-1.26;100.00
62510;BME280;48558;48.242;11.654;2023-03-02T06:37:21;96120.03;;;-1.09;100.00
62510;BME280;48558;48.242;11.654;2023-03-02T06:41:34;96102.56;;;-1.08;100.00
62510;BME280;48558;48.242;11.654;2023-03-02T06:45:46;96119.22;;;-0.96;100.00
62510;BME280;48558;48.242;11.654;2023-03-02T06:49:59;96125.38;;;-0.92;100.00
62510;BME280;48558;48.242;11.654;2023-03-02T06:54:12;96120.78;;;-0.98;100.00
62510;BME280;48558;48.242;11.654;2023-03-02T06:58:25;96123.81;;;-0.82;100.00
62510;BME280;48558;48.242;11.654;2023-03-02T07:02:38;96130.66;;;-0.56;100.00
62510;BME280;48558;48.242;11.654;2023-03-02T07:06:51;96120.19;;;-0.51;100.00
62510;BME280;48558;48.242;11.654;2023-03-02T07:11:11;96125.09;;;-0.25;100.00
62510;BME280;48558;48.242;11.654;2023-03-02T07:15:24;96129.53;;;0.10;100.00
62510;BME280;48558;48.242;11.654;2023-03-02T07:19:36;96111.28;;;0.58;100.00
62510;BME280;48558;48.242;11.654;2023-03-02T07:23:52;96124.94;;;0.92;100.00
62510;BME280;48558;48.242;11.654;2023-03-02T07:28:09;96123.88;;;1.20;100.00
62510;BME280;48558;48.242;11.654;2023-03-02T07:32:22;96109.41;;;1.26;100.00
62510;BME280;48558;48.242;11.654;2023-03-02T07:36:35;96111.09;;;1.47;100.00
62510;BME280;48558;48.242;11.654;2023-03-02T07:40:48;96121.00;;;1.64;100.00
62510;BME280;48558;48.242;11.654;2023-03-02T07:45:01;96116.13;;;1.79;100.00
62510;BME280;48558;48.242;11.654;2023-03-02T07:49:15;96123.84;;;1.84;100.00
62510;BME280;48558;48.242;11.654;2023-03-02T07:53:28;96125.41;;;1.81;100.00
62510;BME280;48558;48.242;11.654;2023-03-02T07:57:41;96128.38;;;1.94;100.00
62510;BME280;48558;48.242;11.654;2023-03-02T08:01:54;96129.34;;;2.34;100.00
62510;BME280;48558;48.242;11.654;2023-03-02T08:06:10;96136.16;;;2.45;100.00
62510;BME280;48558;48.242;11.654;2023-03-02T08:10:23;96142.44;;;2.42;100.00
62510;BME280;48558;48.242;11.654;2023-03-02T08:14:36;96148.69;;;2.66;100.00
62510;BME280;48558;48.242;11.654;2023-03-02T08:18:49;96137.13;;;2.58;100.00
62510;BME280;48558;48.242;11.654;2023-03-02T08:23:02;96143.97;;;2.89;100.00
62510;BME280;48558;48.242;11.654;2023-03-02T08:27:15;96124.75;;;2.97;100.00
62510;BME280;48558;48.242;11.654;2023-03-02T08:31:28;96123.78;;;3.30;100.00
62510;BME280;48558;48.242;11.654;2023-03-02T08:35:42;96128.25;;;3.40;100.00
62510;BME280;48558;48.242;11.654;2023-03-02T08:39:55;96128.19;;;3.63;100.00
62510;BME280;48558;48.242;11.654;2023-03-02T08:44:09;96130.63;;;3.77;100.00
62510;BME280;48558;48.242;11.654;2023-03-02T08:48:23;96143.25;;;4.07;100.00
62510;BME280;48558;48.242;11.654;2023-03-02T08:52:36;96129.78;;;4.16;100.00
62510;BME280;48558;48.242;11.654;2023-03-02T08:56:48;96132.75;;;4.21;100.00
62510;BME280;48558;48.242;11.654;2023-03-02T09:01:01;96128.31;;;4.27;100.00
62510;BME280;48558;48.242;11.654;2023-03-02T09:05:14;96149.38;;;4.63;100.00
62510;BME280;48558;48.242;11.654;2023-03-02T09:09:26;96129.28;;;4.69;100.00
62510;BME280;48558;48.242;11.654;2023-03-02T09:13:39;96139.94;;;4.96;100.00
62510;BME280;48558;48.242;11.654;2023-03-02T09:17:52;96127.47;;;5.11;100.00
62510;BME280;48558;48.242;11.654;2023-03-02T09:22:04;96125.34;;;5.31;100.00
62510;BME280;48558;48.242;11.654;2023-03-02T09:26:17;96123.91;;;5.55;100.00
62510;BME280;48558;48.242;11.654;2023-03-02T09:30:29;96144.44;;;6.05;100.00
62510;BME280;48558;48.242;11.654;2023-03-02T09:34:42;96146.19;;;6.87;100.00
62510;BME280;48558;48.242;11.654;2023-03-02T09:38:55;96135.34;;;6.71;100.00
62510;BME280;48558;48.242;11.654;2023-03-02T09:43:19;96150.94;;;7.20;100.00
62510;BME280;48558;48.242;11.654;2023-03-02T09:52:35;96146.47;;;7.70;100.00
62510;BME280;48558;48.242;11.654;2023-03-02T09:56:58;96147.31;;;7.79;100.00
62510;BME280;48558;48.242;11.654;2023-03-02T10:01:15;96135.91;;;7.90;100.00
62510;BME280;48558;48.242;11.654;2023-03-02T10:09:47;96138.69;;;9.00;100.00
62510;BME280;48558;48.242;11.654;2023-03-02T10:14:06;96139.34;;;9.04;100.00
62510;BME280;48558;48.242;11.654;2023-03-02T10:18:44;96141.03;;;9.20;100.00
62510;BME280;48558;48.242;11.654;2023-03-02T10:23:13;96143.06;;;9.47;100.00
62510;BME280;48558;48.242;11.654;2023-03-02T10:27:35;96146.41;;;9.96;100.00
62510;BME280;48558;48.242;11.654;2023-03-02T10:31:59;96141.78;;;10.11;98.72
62510;BME280;48558;48.242;11.654;2023-03-02T10:36:33;96146.03;;;10.39;96.95
62510;BME280;48558;48.242;11.654;2023-03-02T10:40:52;96140.63;;;10.45;97.68
62510;BME280;48558;48.242;11.654;2023-03-02T10:45:26;96136.72;;;10.19;100.00
62510;BME280;48558;48.242;11.654;2023-03-02T10:49:41;96125.69;;;10.60;100.00
62510;BME280;48558;48.242;11.654;2023-03-02T10:54:10;96130.75;;;11.18;84.31
62510;BME280;48558;48.242;11.654;2023-03-02T10:58:31;96141.72;;;10.80;89.98
62510;BME280;48558;48.242;11.654;2023-03-02T11:07:26;96127.50;;;11.20;93.16
62510;BME280;48558;48.242;11.654;2023-03-02T11:11:48;96133.50;;;12.18;81.81
62510;BME280;48558;48.242;11.654;2023-03-02T11:20:35;96116.41;;;11.05;85.34
62510;BME280;48558;48.242;11.654;2023-03-02T11:24:52;96119.47;;;12.07;73.87
62510;BME280;48558;48.242;11.654;2023-03-02T11:29:33;96115.59;;;11.76;74.41
62510;BME280;48558;48.242;11.654;2023-03-02T11:34:20;96115.44;;;12.52;72.12
62510;BME280;48558;48.242;11.654;2023-03-02T11:43:01;96108.47;;;12.13;76.61
62510;BME280;48558;48.242;11.654;2023-03-02T11:47:19;96102.31;;;11.41;78.33
62510;BME280;48558;48.242;11.654;2023-03-02T11:51:52;96093.16;;;12.61;78.78
62510;BME280;48558;48.242;11.654;2023-03-02T11:56:09;96096.91;;;12.29;73.46
62510;BME280;48558;48.242;11.654;2023-03-02T12:00:38;96094.34;;;13.30;71.73
62510;BME280;48558;48.242;11.654;2023-03-02T12:05:05;96091.94;;;13.57;68.59
62510;BME280;48558;48.242;11.654;2023-03-02T12:09:36;96078.13;;;12.53;70.87
62510;BME280;48558;48.242;11.654;2023-03-02T12:22:35;96078.44;;;13.71;63.19
62510;BME280;48558;48.242;11.654;2023-03-02T12:27:00;96078.19;;;13.94;63.81
62510;BME280;48558;48.242;11.654;2023-03-02T12:31:14;96053.78;;;14.61;60.13
62510;BME280;48558;48.242;11.654;2023-03-02T12:35:28;96078.66;;;14.44;60.24
62510;BME280;48558;48.242;11.654;2023-03-02T12:40:16;96083.34;;;13.01;62.10
62510;BME280;48558;48.242;11.654;2023-03-02T12:45:17;96086.28;;;13.72;63.64
62510;BME280;48558;48.242;11.654;2023-03-02T12:49:57;96071.41;;;14.26;62.05
62510;BME280;48558;48.242;11.654;2023-03-02T12:54:22;96072.47;;;14.03;64.42
62510;BME280;48558;48.242;11.654;2023-03-02T12:58:36;96061.59;;;14.99;59.81
62510;BME280;48558;48.242;11.654;2023-03-02T13:02:52;96060.25;;;14.83;63.08
62510;BME280;48558;48.242;11.654;2023-03-02T13:07:17;96054.47;;;14.92;60.07
62510;BME280;48558;48.242;11.654;2023-03-02T13:11:33;96011.75;;;14.53;59.16
62510;BME280;48558;48.242;11.654;2023-03-02T13:15:56;96053.63;;;14.13;61.52
62510;BME280;48558;48.242;11.654;2023-03-02T13:20:12;96058.94;;;14.42;57.72
62510;BME280;48558;48.242;11.654;2023-03-02T13:24:45;96060.50;;;13.26;59.65
62510;BME280;48558;48.242;11.654;2023-03-02T13:33:27;96051.03;;;14.35;54.23
62510;BME280;48558;48.242;11.654;2023-03-02T13:37:40;96049.09;;;15.31;55.04
62510;BME280;48558;48.242;11.654;2023-03-02T13:42:00;96041.16;;;15.66;50.58
62510;BME280;48558;48.242;11.654;2023-03-02T13:50:30;96044.78;;;16.50;49.97
62510;BME280;48558;48.242;11.654;2023-03-02T13:54:44;96044.25;;;16.07;50.77
62510;BME280;48558;48.242;11.654;2023-03-02T13:58:58;96037.84;;;15.62;51.55
62510;BME280;48558;48.242;11.654;2023-03-02T14:03:27;96036.97;;;14.18;53.06
62510;BME280;48558;48.242;11.654;2023-03-02T14:07:49;96038.78;;;14.95;55.13
62510;BME280;48558;48.242;11.654;2023-03-02T14:12:04;96026.03;;;15.25;54.50
62510;BME280;48558;48.242;11.654;2023-03-02T14:16:22;96038.59;;;15.57;54.82
62510;BME280;48558;48.242;11.654;2023-03-02T14:20:35;96026.78;;;16.45;48.42
62510;BME280;48558;48.242;11.654;2023-03-02T14:24:48;96031.13;;;16.52;47.11
62510;BME280;48558;48.242;11.654;2023-03-02T14:29:15;96033.31;;;15.76;50.34
62510;BME280;48558;48.242;11.654;2023-03-02T14:33:36;96027.03;;;16.31;49.87
62510;BME280;48558;48.242;11.654;2023-03-02T14:37:49;96029.81;;;16.09;49.29
62510;BME280;48558;48.242;11.654;2023-03-02T14:42:04;96017.66;;;16.67;48.89
62510;BME280;48558;48.242;11.654;2023-03-02T14:46:22;96021.38;;;15.53;51.63
62510;BME280;48558;48.242;11.654;2023-03-02T14:50:47;96017.16;;;16.08;51.89
62510;BME280;48558;48.242;11.654;2023-03-02T14:55:04;96009.88;;;14.81;51.75
62510;BME280;48558;48.242;11.654;2023-03-02T14:59:36;96013.44;;;13.83;55.81
62510;BME280;48558;48.242;11.654;2023-03-02T15:03:49;96013.84;;;13.24;57.03
62510;BME280;48558;48.242;11.654;2023-03-02T15:08:05;96018.50;;;12.78;60.85
62510;BME280;48558;48.242;11.654;2023-03-02T15:12:20;96014.25;;;12.62;63.42
62510;BME280;48558;48.242;11.654;2023-03-02T15:16:33;96023.75;;;11.92;63.98
62510;BME280;48558;48.242;11.654;2023-03-02T15:20:45;96001.22;;;11.99;69.61
62510;BME280;48558;48.242;11.654;2023-03-02T15:24:58;96023.00;;;11.77;71.50
62510;BME280;48558;48.242;11.654;2023-03-02T15:29:11;96013.69;;;11.36;69.18
62510;BME280;48558;48.242;11.654;2023-03-02T15:33:23;96010.53;;;11.28;72.04
62510;BME280;48558;48.242;11.654;2023-03-02T15:37:36;96029.19;;;11.19;74.91
62510;BME280;48558;48.242;11.654;2023-03-02T15:41:48;96028.09;;;11.02;75.56
62510;BME280;48558;48.242;11.654;2023-03-02T15:46:01;96003.13;;;10.72;77.37
62510;BME280;48558;48.242;11.654;2023-03-02T15:50:13;96015.13;;;10.69;75.92
62510;BME280;48558;48.242;11.654;2023-03-02T15:54:27;96045.47;;;10.46;80.00
62510;BME280;48558;48.242;11.654;2023-03-02T15:58:39;96043.16;;;10.53;83.77
62510;BME280;48558;48.242;11.654;2023-03-02T16:02:52;96052.56;;;10.47;91.02
62510;BME280;48558;48.242;11.654;2023-03-02T16:07:05;96048.66;;;10.21;89.67
62510;BME280;48558;48.242;11.654;2023-03-02T16:11:18;96039.00;;;9.65;100.00
62510;BME280;48558;48.242;11.654;2023-03-02T16:15:38;96066.91;;;8.95;100.00
62510;BME280;48558;48.242;11.654;2023-03-02T16:19:51;96057.44;;;8.47;100.00
62510;BME280;48558;48.242;11.654;2023-03-02T16:24:05;96073.75;;;8.32;100.00
62510;BME280;48558;48.242;11.654;2023-03-02T16:28:18;96071.47;;;8.00;100.00
62510;BME280;48558;48.242;11.654;2023-03-02T16:32:31;96082.44;;;7.91;100.00
62510;BME280;48558;48.242;11.654;2023-03-02T16:36:45;96088.06;;;7.66;100.00
62510;BME280;48558;48.242;11.654;2023-03-02T16:40:57;96098.03;;;7.29;100.00
62510;BME280;48558;48.242;11.654;2023-03-02T16:45:10;96106.38;;;7.04;100.00
62510;BME280;48558;48.242;11.654;2023-03-02T16:49:23;96105.13;;;6.58;100.00
62510;BME280;48558;48.242;11.654;2023-03-02T16:53:46;96121.19;;;6.34;100.00
62510;BME280;48558;48.242;11.654;2023-03-02T16:57:59;96119.31;;;6.19;100.00
62510;BME280;48558;48.242;11.654;2023-03-02T17:02:11;96132.34;;;6.02;100.00
62510;BME280;48558;48.242;11.654;2023-03-02T17:06:24;96129.50;;;5.64;100.00
62510;BME280;48558;48.242;11.654;2023-03-02T17:10:37;96143.72;;;5.47;100.00
62510;BME280;48558;48.242;11.654;2023-03-02T17:14:50;96158.16;;;5.19;100.00
62510;BME280;48558;48.242;11.654;2023-03-02T17:19:13;96148.16;;;4.96;100.00
62510;BME280;48558;48.242;11.654;2023-03-02T17:23:26;96163.91;;;4.76;100.00
62510;BME280;48558;48.242;11.654;2023-03-02T17:27:40;96164.03;;;4.72;100.00
62510;BME280;48558;48.242;11.654;2023-03-02T17:31:53;96169.56;;;4.53;100.00
62510;BME280;48558;48.242;11.654;2023-03-02T17:36:08;96179.78;;;4.32;100.00
62510;BME280;48558;48.242;11.654;2023-03-02T17:40:23;96179.34;;;4.18;100.00
62510;BME280;48558;48.242;11.654;2023-03-02T17:44:39;96182.38;;;4.04;100.00
62510;BME280;48558;48.242;11.654;2023-03-02T17:48:55;96186.38;;;3.99;100.00
62510;BME280;48558;48.242;11.654;2023-03-02T17:53:08;96182.16;;;3.95;100.00
62510;BME280;48558;48.242;11.654;2023-03-02T17:57:20;96199.19;;;3.83;100.00
62510;BME280;48558;48.242;11.654;2023-03-02T18:01:34;96191.09;;;3.59;100.00
62510;BME280;48558;48.242;11.654;2023-03-02T18:05:46;96207.88;;;3.58;100.00
62510;BME280;48558;48.242;11.654;2023-03-02T18:09:59;96218.94;;;3.51;100.00
62510;BME280;48558;48.242;11.654;2023-03-02T18:14:15;96215.38;;;3.54;100.00
62510;BME280;48558;48.242;11.654;2023-03-02T18:18:30;96202.53;;;3.31;100.00
62510;BME280;48558;48.242;11.654;2023-03-02T18:22:42;96214.47;;;3.18;100.00
62510;BME280;48558;48.242;11.654;2023-03-02T18:26:55;96207.34;;;3.24;100.00
62510;BME280;48558;48.242;11.654;2023-03-02T18:31:08;96229.06;;;3.31;100.00
62510;BME280;48558;48.242;11.654;2023-03-02T18:35:22;96221.94;;;2.90;100.00
62510;BME280;48558;48.242;11.654;2023-03-02T18:39:35;96231.69;;;2.92;100.00
62510;BME280;48558;48.242;11.654;2023-03-02T18:43:49;96240.00;;;2.84;100.00
62510;BME280;48558;48.242;11.654;2023-03-02T18:48:03;96235.78;;;2.80;100.00
62510;BME280;48558;48.242;11.654;2023-03-02T18:52:15;96233.78;;;2.80;100.00
62510;BME280;48558;48.242;11.654;2023-03-02T18:56:28;96232.91;;;2.64;100.00
62510;BME280;48558;48.242;11.654;2023-03-02T19:00:40;96244.25;;;2.59;100.00
62510;BME280;48558;48.242;11.654;2023-03-02T19:04:53;96244.72;;;2.54;100.00
62510;BME280;48558;48.242;11.654;2023-03-02T19:09:06;96246.44;;;2.44;100.00
62510;BME280;48558;48.242;11.654;2023-03-02T19:13:19;96257.84;;;2.36;100.00
62510;BME280;48558;48.242;11.654;2023-03-02T19:17:32;96258.03;;;2.22;100.00
62510;BME280;48558;48.242;11.654;2023-03-02T19:21:45;96250.88;;;2.31;100.00
62510;BME280;48558;48.242;11.654;2023-03-02T19:25:57;96262.56;;;2.32;100.00
62510;BME280;48558;48.242;11.654;2023-03-02T19:30:15;96267.88;;;2.12;100.00
62510;BME280;48558;48.242;11.654;2023-03-02T19:34:30;96259.44;;;2.03;100.00
62510;BME280;48558;48.242;11.654;2023-03-02T19:38:49;96268.41;;;2.00;100.00
62510;BME280;48558;48.242;11.654;2023-03-02T19:43:02;96272.44;;;1.88;100.00
62510;BME280;48558;48.242;11.654;2023-03-02T19:47:16;96269.47;;;1.76;100.00
62510;BME280;48558;48.242;11.654;2023-03-02T19:51:29;96274.09;;;1.79;100.00
62510;BME280;48558;48.242;11.654;2023-03-02T19:55:52;96271.09;;;1.70;100.00
62510;BME280;48558;48.242;11.654;2023-03-02T20:00:07;96288.44;;;1.86;100.00
62510;BME280;48558;48.242;11.654;2023-03-02T20:04:24;96275.78;;;1.69;100.00
62510;BME280;48558;48.242;11.654;2023-03-02T20:08:37;96278.22;;;1.60;100.00
62510;BME280;48558;48.242;11.654;2023-03-02T20:12:49;96287.44;;;1.70;100.00
62510;BME280;48558;48.242;11.654;2023-03-02T20:17:02;96242.28;;;1.35;100.00
62510;BME280;48558;48.242;11.654;2023-03-02T20:21:15;96276.34;;;1.54;100.00
62510;BME280;48558;48.242;11.654;2023-03-02T20:25:27;96285.63;;;1.56;100.00
62510;BME280;48558;48.242;11.654;2023-03-02T20:29:41;96281.38;;;1.55;100.00
62510;BME280;48558;48.242;11.654;2023-03-02T20:33:54;96297.00;;;1.48;100.00
62510;BME280;48558;48.242;11.654;2023-03-02T20:38:38;96292.03;;;1.39;100.00
62510;BME280;48558;48.242;11.654;2023-03-02T20:42:54;96303.31;;;1.37;100.00
62510;BME280;48558;48.242;11.654;2023-03-02T20:47:16;96297.22;;;1.23;100.00
62510;BME280;48558;48.242;11.654;2023-03-02T20:51:29;96301.88;;;1.22;100.00
62510;BME280;48558;48.242;11.654;2023-03-02T20:55:41;96287.22;;;1.13;100.00
62510;BME280;48558;48.242;11.654;2023-03-02T20:59:54;96292.72;;;1.06;100.00
62510;BME280;48558;48.242;11.654;2023-03-02T21:04:07;96295.75;;;1.11;100.00
62510;BME280;48558;48.242;11.654;2023-03-02T21:08:19;96304.22;;;1.20;100.00
62510;BME280;48558;48.242;11.654;2023-03-02T21:12:32;96293.53;;;0.99;100.00
62510;BME280;48558;48.242;11.654;2023-03-02T21:16:45;96299.78;;;0.96;100.00
62510;BME280;48558;48.242;11.654;2023-03-02T21:20:58;96307.56;;;0.94;100.00
62510;BME280;48558;48.242;11.654;2023-03-02T21:25:21;96302.22;;;0.80;100.00
62510;BME280;48558;48.242;11.654;2023-03-02T21:29:37;96298.66;;;0.90;100.00
62510;BME280;48558;48.242;11.654;2023-03-02T21:33:49;96293.69;;;0.78;100.00
62510;BME280;48558;48.242;11.654;2023-03-02T21:38:02;96301.00;;;0.88;100.00
62510;BME280;48558;48.242;11.654;2023-03-02T21:42:15;96291.38;;;0.77;100.00
62510;BME280;48558;48.242;11.654;2023-03-02T21:46:28;96304.28;;;0.65;100.00
62510;BME280;48558;48.242;11.654;2023-03-02T21:50:41;96301.56;;;0.62;100.00
62510;BME280;48558;48.242;11.654;2023-03-02T21:54:54;96306.66;;;0.56;100.00
62510;BME280;48558;48.242;11.654;2023-03-02T21:59:07;96305.88;;;0.56;100.00
62510;BME280;48558;48.242;11.654;2023-03-02T22:03:19;96315.19;;;0.58;100.00
62510;BME280;48558;48.242;11.654;2023-03-02T22:07:31;96318.75;;;0.41;100.00
62510;BME280;48558;48.242;11.654;2023-03-02T22:11:44;96307.16;;;0.34;100.00
62510;BME280;48558;48.242;11.654;2023-03-02T22:16:31;96319.13;;;0.43;100.00
62510;BME280;48558;48.242;11.654;2023-03-02T22:20:48;96312.13;;;0.46;100.00
62510;BME280;48558;48.242;11.654;2023-03-02T22:25:01;96304.38;;;0.41;100.00
62510;BME280;48558;48.242;11.654;2023-03-02T22:29:40;96308.69;;;0.35;100.00
62510;BME280;48558;48.242;11.654;2023-03-02T22:33:53;96305.63;;;0.29;100.00
62510;BME280;48558;48.242;11.654;2023-03-02T22:38:12;96313.00;;;0.29;100.00
62510;BME280;48558;48.242;11.654;2023-03-02T22:42:34;96325.06;;;0.24;100.00
62510;BME280;48558;48.242;11.654;2023-03-02T22:46:47;96312.66;;;0.16;100.00
62510;BME280;48558;48.242;11.654;2023-03-02T22:51:19;96319.22;;;0.26;100.00
62510;BME280;48558;48.242;11.654;2023-03-02T22:55:41;96318.47;;;0.18;100.00
62510;BME280;48558;48.242;11.654;2023-03-02T23:04:34;96313.44;;;0.17;100.00
62510;BME280;48558;48.242;11.654;2023-03-02T23:08:47;96318.88;;;0.17;100.00
62510;BME280;48558;48.242;11.654;2023-03-02T23:13:00;96310.00;;;0.06;100.00